sensor_id;sensor_type;location;lat;lon;timestamp;P1;durP1;ratioP1;P2;durP2;ratioP2
69523;SDS011;56723;42.694;23.286;2022-11-20T00:00:17;1.23;;;0.10;;
69523;SDS011;56723;42.694;23.286;2022-11-20T00:02:45;4.93;;;0.17;;
69523;SDS011;56723;42.694;23.286;2022-11-20T00:05:12;4.88;;;0.20;;
69523;SDS011;56723;42.694;23.286;2022-11-20T00:07:38;3.15;;;0.20;;
69523;SDS011;56723;42.694;23.286;2022-11-20T00:10:05;1.25;;;0.20;;
69523;SDS011;56723;42.694;23.286;2022-11-20T00:12:33;1.60;;;0.30;;
69523;SDS011;56723;42.694;23.286;2022-11-20T00:14:59;2.58;;;0.20;;
69523;SDS011;56723;42.694;23.286;2022-11-20T00:17:27;1.58;;;0.40;;
69523;SDS011;56723;42.694;23.286;2022-11-20T00:19:54;3.25;;;0.30;;
69523;SDS011;56723;42.694;23.286;2022-11-20T00:22:21;1.40;;;0.10;;
69523;SDS011;56723;42.694;23.286;2022-11-20T00:24:48;2.72;;;0.15;;
69523;SDS011;56723;42.694;23.286;2022-11-20T00:27:14;2.03;;;0.20;;
69523;SDS011;56723;42.694;23.286;2022-11-20T00:29:41;2.20;;;0.10;;
69523;SDS011;56723;42.694;23.286;2022-11-20T00:32:08;1.67;;;0.20;;
69523;SDS011;56723;42.694;23.286;2022-11-20T00:34:35;1.95;;;0.20;;
69523;SDS011;56723;42.694;23.286;2022-11-20T00:37:02;2.40;;;0.20;;
69523;SDS011;56723;42.694;23.286;2022-11-20T00:39:29;1.15;;;0.10;;
69523;SDS011;56723;42.694;23.286;2022-11-20T00:41:55;0.50;;;0.10;;
69523;SDS011;56723;42.694;23.286;2022-11-20T00:44:22;2.03;;;0.20;;
69523;SDS011;56723;42.694;23.286;2022-11-20T00:46:49;2.15;;;0.20;;
69523;SDS011;56723;42.694;23.286;2022-11-20T00:49:16;1.80;;;0.20;;
69523;SDS011;56723;42.694;23.286;2022-11-20T00:51:43;1.55;;;0.22;;
69523;SDS011;56723;42.694;23.286;2022-11-20T00:54:10;1.95;;;0.20;;
69523;SDS011;56723;42.694;23.286;2022-11-20T00:56:36;4.93;;;0.75;;
69523;SDS011;56723;42.694;23.286;2022-11-20T00:59:03;1.73;;;0.35;;
69523;SDS011;56723;42.694;23.286;2022-11-20T01:01:30;1.15;;;0.20;;
69523;SDS011;56723;42.694;23.286;2022-11-20T01:03:58;1.73;;;0.20;;
69523;SDS011;56723;42.694;23.286;2022-11-20T01:06:27;1.50;;;0.13;;
69523;SDS011;56723;42.694;23.286;2022-11-20T01:08:57;2.75;;;0.15;;
69523;SDS011;56723;42.694;23.286;2022-11-20T01:13:53;2.65;;;0.20;;
69523;SDS011;56723;42.694;23.286;2022-11-20T01:16:26;2.58;;;0.40;;
69523;SDS011;56723;42.694;23.286;2022-11-20T01:19:05;1.63;;;0.20;;
69523;SDS011;56723;42.694;23.286;2022-11-20T01:21:37;3.60;;;0.20;;
69523;SDS011;56723;42.694;23.286;2022-11-20T01:24:06;1.00;;;0.20;;
69523;SDS011;56723;42.694;23.286;2022-11-20T01:26:35;2.40;;;0.35;;
69523;SDS011;56723;42.694;23.286;2022-11-20T01:29:03;4.32;;;0.80;;
69523;SDS011;56723;42.694;23.286;2022-11-20T01:31:32;0.75;;;0.10;;
69523;SDS011;56723;42.694;23.286;2022-11-20T01:34:02;2.53;;;0.20;;
69523;SDS011;56723;42.694;23.286;2022-11-20T01:36:48;1.27;;;0.20;;
69523;SDS011;56723;42.694;23.286;2022-11-20T01:39:17;2.08;;;0.10;;
69523;SDS011;56723;42.694;23.286;2022-11-20T01:41:49;2.42;;;0.20;;
69523;SDS011;56723;42.694;23.286;2022-11-20T01:50:44;3.47;;;0.10;;
69523;SDS011;56723;42.694;23.286;2022-11-20T01:55:29;3.88;;;0.10;;
69523;SDS011;56723;42.694;23.286;2022-11-20T01:58:01;0.82;;;0.10;;
69523;SDS011;56723;42.694;23.286;2022-11-20T02:00:30;3.88;;;0.25;;
69523;SDS011;56723;42.694;23.286;2022-11-20T02:02:58;1.95;;;0.20;;
69523;SDS011;56723;42.694;23.286;2022-11-20T02:05:39;2.80;;;0.25;;
69523;SDS011;56723;42.694;23.286;2022-11-20T02:08:10;2.40;;;0.10;;
69523;SDS011;56723;42.694;23.286;2022-11-20T02:10:38;0.83;;;0.20;;
69523;SDS011;56723;42.694;23.286;2022-11-20T02:13:06;1.10;;;0.20;;
69523;SDS011;56723;42.694;23.286;2022-11-20T02:15:51;3.15;;;0.28;;
69523;SDS011;56723;42.694;23.286;2022-11-20T02:18:19;1.13;;;0.10;;
69523;SDS011;56723;42.694;23.286;2022-11-20T02:20:47;1.35;;;0.20;;
69523;SDS011;56723;42.694;23.286;2022-11-20T02:25:51;1.17;;;0.10;;
69523;SDS011;56723;42.694;23.286;2022-11-20T02:28:21;1.70;;;0.15;;
69523;SDS011;56723;42.694;23.286;2022-11-20T02:30:48;1.08;;;0.20;;
69523;SDS011;56723;42.694;23.286;2022-11-20T02:33:15;3.80;;;0.30;;
69523;SDS011;56723;42.694;23.286;2022-11-20T02:35:43;2.83;;;0.30;;
69523;SDS011;56723;42.694;23.286;2022-11-20T02:38:11;2.05;;;0.20;;
69523;SDS011;56723;42.694;23.286;2022-11-20T02:40:39;1.50;;;0.20;;
69523;SDS011;56723;42.694;23.286;2022-11-20T02:43:07;3.10;;;0.20;;
69523;SDS011;56723;42.694;23.286;2022-11-20T02:45:34;1.52;;;0.20;;
69523;SDS011;56723;42.694;23.286;2022-11-20T02:48:01;0.90;;;0.10;;
69523;SDS011;56723;42.694;23.286;2022-11-20T02:50:28;2.13;;;0.10;;
69523;SDS011;56723;42.694;23.286;2022-11-20T02:52:54;1.77;;;0.20;;
69523;SDS011;56723;42.694;23.286;2022-11-20T02:55:21;1.75;;;0.20;;
69523;SDS011;56723;42.694;23.286;2022-11-20T02:57:48;1.98;;;0.30;;
69523;SDS011;56723;42.694;23.286;2022-11-20T03:00:15;2.00;;;0.25;;
69523;SDS011;56723;42.694;23.286;2022-11-20T03:02:42;1.83;;;0.20;;
69523;SDS011;56723;42.694;23.286;2022-11-20T03:05:09;2.25;;;0.22;;
69523;SDS011;56723;42.694;23.286;2022-11-20T03:07:36;4.22;;;0.28;;
69523;SDS011;56723;42.694;23.286;2022-11-20T03:10:03;2.90;;;0.45;;
69523;SDS011;56723;42.694;23.286;2022-11-20T03:12:31;3.15;;;0.22;;
69523;SDS011;56723;42.694;23.286;2022-11-20T03:14:58;5.15;;;0.32;;
69523;SDS011;56723;42.694;23.286;2022-11-20T03:17:25;1.95;;;0.22;;
69523;SDS011;56723;42.694;23.286;2022-11-20T03:19:51;2.20;;;0.40;;
69523;SDS011;56723;42.694;23.286;2022-11-20T03:22:18;2.40;;;0.30;;
69523;SDS011;56723;42.694;23.286;2022-11-20T03:24:45;2.92;;;0.45;;
69523;SDS011;56723;42.694;23.286;2022-11-20T03:27:12;2.20;;;0.30;;
69523;SDS011;56723;42.694;23.286;2022-11-20T03:29:39;1.00;;;0.20;;
69523;SDS011;56723;42.694;23.286;2022-11-20T03:32:06;4.32;;;0.35;;
69523;SDS011;56723;42.694;23.286;2022-11-20T03:34:33;2.05;;;0.30;;
69523;SDS011;56723;42.694;23.286;2022-11-20T03:37:00;1.58;;;0.20;;
69523;SDS011;56723;42.694;23.286;2022-11-20T03:39:27;2.10;;;0.20;;
69523;SDS011;56723;42.694;23.286;2022-11-20T03:41:54;2.22;;;0.15;;
69523;SDS011;56723;42.694;23.286;2022-11-20T03:44:21;3.28;;;0.20;;
69523;SDS011;56723;42.694;23.286;2022-11-20T03:46:48;4.25;;;0.20;;
69523;SDS011;56723;42.694;23.286;2022-11-20T03:49:15;2.78;;;0.20;;
69523;SDS011;56723;42.694;23.286;2022-11-20T03:51:42;2.53;;;0.20;;
69523;SDS011;56723;42.694;23.286;2022-11-20T03:54:08;1.58;;;0.20;;
69523;SDS011;56723;42.694;23.286;2022-11-20T03:56:36;1.75;;;0.13;;
69523;SDS011;56723;42.694;23.286;2022-11-20T03:59:05;2.20;;;0.10;;
69523;SDS011;56723;42.694;23.286;2022-11-20T04:01:33;1.88;;;0.20;;
69523;SDS011;56723;42.694;23.286;2022-11-20T04:04:02;3.47;;;0.28;;
69523;SDS011;56723;42.694;23.286;2022-11-20T04:06:32;2.05;;;0.30;;
69523;SDS011;56723;42.694;23.286;2022-11-20T04:09:01;2.92;;;0.30;;
69523;SDS011;56723;42.694;23.286;2022-11-20T04:11:28;2.92;;;0.20;;
69523;SDS011;56723;42.694;23.286;2022-11-20T04:14:00;3.85;;;0.25;;
69523;SDS011;56723;42.694;23.286;2022-11-20T04:16:29;2.38;;;0.20;;
69523;SDS011;56723;42.694;23.286;2022-11-20T04:18:58;5.15;;;0.20;;
69523;SDS011;56723;42.694;23.286;2022-11-20T04:21:26;3.78;;;0.20;;
69523;SDS011;56723;42.694;23.286;2022-11-20T04:23:54;1.23;;;0.30;;
69523;SDS011;56723;42.694;23.286;2022-11-20T04:26:23;3.60;;;0.60;;
69523;SDS011;56723;42.694;23.286;2022-11-20T06:33:02;2.75;;;0.65;;
69523;SDS011;56723;42.694;23.286;2022-11-20T06:35:29;2.28;;;0.50;;
69523;SDS011;56723;42.694;23.286;2022-11-20T06:37:56;1.38;;;0.30;;
69523;SDS011;56723;42.694;23.286;2022-11-20T06:40:23;2.78;;;0.40;;
69523;SDS011;56723;42.694;23.286;2022-11-20T06:42:50;2.63;;;0.35;;
69523;SDS011;56723;42.694;23.286;2022-11-20T06:45:17;2.70;;;0.70;;
69523;SDS011;56723;42.694;23.286;2022-11-20T06:47:43;2.28;;;0.40;;
69523;SDS011;56723;42.694;23.286;2022-11-20T06:50:10;2.47;;;0.40;;
69523;SDS011;56723;42.694;23.286;2022-11-20T06:52:37;2.55;;;0.50;;
69523;SDS011;56723;42.694;23.286;2022-11-20T06:55:09;7.18;;;1.30;;
69523;SDS011;56723;42.694;23.286;2022-11-20T06:57:35;4.65;;;0.70;;
69523;SDS011;56723;42.694;23.286;2022-11-20T07:00:02;5.07;;;0.60;;
69523;SDS011;56723;42.694;23.286;2022-11-20T07:02:29;5.28;;;0.40;;
69523;SDS011;56723;42.694;23.286;2022-11-20T07:04:56;4.63;;;0.82;;
69523;SDS011;56723;42.694;23.286;2022-11-20T07:07:23;0.90;;;0.20;;
69523;SDS011;56723;42.694;23.286;2022-11-20T07:09:50;1.60;;;0.20;;
69523;SDS011;56723;42.694;23.286;2022-11-20T07:12:17;2.63;;;0.30;;
69523;SDS011;56723;42.694;23.286;2022-11-20T07:14:44;2.25;;;0.20;;
69523;SDS011;56723;42.694;23.286;2022-11-20T07:17:11;3.38;;;0.30;;
69523;SDS011;56723;42.694;23.286;2022-11-20T07:19:38;3.88;;;0.55;;
69523;SDS011;56723;42.694;23.286;2022-11-20T07:22:05;3.35;;;0.50;;
69523;SDS011;56723;42.694;23.286;2022-11-20T07:24:32;5.80;;;2.28;;
69523;SDS011;56723;42.694;23.286;2022-11-20T07:26:59;3.25;;;0.52;;
69523;SDS011;56723;42.694;23.286;2022-11-20T07:29:26;1.95;;;0.20;;
69523;SDS011;56723;42.694;23.286;2022-11-20T07:31:52;2.67;;;0.50;;
69523;SDS011;56723;42.694;23.286;2022-11-20T07:36:48;2.83;;;0.45;;
69523;SDS011;56723;42.694;23.286;2022-11-20T07:39:15;5.03;;;0.22;;
69523;SDS011;56723;42.694;23.286;2022-11-20T07:41:42;4.68;;;1.08;;
69523;SDS011;56723;42.694;23.286;2022-11-20T07:44:09;1.65;;;0.40;;
69523;SDS011;56723;42.694;23.286;2022-11-20T07:46:36;3.10;;;0.55;;
69523;SDS011;56723;42.694;23.286;2022-11-20T07:49:02;8.50;;;0.65;;
69523;SDS011;56723;42.694;23.286;2022-11-20T07:51:29;2.10;;;0.47;;
69523;SDS011;56723;42.694;23.286;2022-11-20T07:53:56;5.15;;;0.68;;
69523;SDS011;56723;42.694;23.286;2022-11-20T07:56:24;5.78;;;0.82;;
69523;SDS011;56723;42.694;23.286;2022-11-20T07:58:50;2.55;;;0.45;;
69523;SDS011;56723;42.694;23.286;2022-11-20T08:01:17;2.63;;;0.77;;
69523;SDS011;56723;42.694;23.286;2022-11-20T08:03:44;3.47;;;0.63;;
69523;SDS011;56723;42.694;23.286;2022-11-20T08:06:11;4.78;;;0.77;;
69523;SDS011;56723;42.694;23.286;2022-11-20T08:08:38;2.42;;;0.65;;
69523;SDS011;56723;42.694;23.286;2022-11-20T08:11:08;4.75;;;0.80;;
69523;SDS011;56723;42.694;23.286;2022-11-20T08:13:53;2.08;;;0.68;;
69523;SDS011;56723;42.694;23.286;2022-11-20T08:16:42;6.05;;;0.75;;
69523;SDS011;56723;42.694;23.286;2022-11-20T08:19:11;6.50;;;0.85;;
69523;SDS011;56723;42.694;23.286;2022-11-20T08:21:42;2.72;;;0.60;;
69523;SDS011;56723;42.694;23.286;2022-11-20T08:24:10;6.95;;;1.77;;
69523;SDS011;56723;42.694;23.286;2022-11-20T08:26:37;2.80;;;0.50;;
69523;SDS011;56723;42.694;23.286;2022-11-20T08:29:06;3.20;;;0.30;;
69523;SDS011;56723;42.694;23.286;2022-11-20T08:31:33;4.57;;;0.88;;
69523;SDS011;56723;42.694;23.286;2022-11-20T08:33:59;5.72;;;1.60;;
69523;SDS011;56723;42.694;23.286;2022-11-20T08:36:33;5.15;;;1.80;;
69523;SDS011;56723;42.694;23.286;2022-11-20T08:39:01;9.73;;;2.17;;
69523;SDS011;56723;42.694;23.286;2022-11-20T08:41:29;5.30;;;0.60;;
69523;SDS011;56723;42.694;23.286;2022-11-20T08:44:00;4.82;;;0.93;;
69523;SDS011;56723;42.694;23.286;2022-11-20T08:46:31;3.10;;;0.40;;
69523;SDS011;56723;42.694;23.286;2022-11-20T08:49:00;3.75;;;0.40;;
69523;SDS011;56723;42.694;23.286;2022-11-20T08:51:27;3.58;;;0.80;;
69523;SDS011;56723;42.694;23.286;2022-11-20T08:53:54;9.10;;;1.20;;
69523;SDS011;56723;42.694;23.286;2022-11-20T08:56:21;5.25;;;1.38;;
69523;SDS011;56723;42.694;23.286;2022-11-20T08:58:49;10.27;;;2.55;;
69523;SDS011;56723;42.694;23.286;2022-11-20T09:01:37;4.47;;;1.27;;
69523;SDS011;56723;42.694;23.286;2022-11-20T09:04:05;6.85;;;2.40;;
69523;SDS011;56723;42.694;23.286;2022-11-20T09:06:32;9.00;;;2.13;;
69523;SDS011;56723;42.694;23.286;2022-11-20T09:08:59;8.63;;;1.70;;
69523;SDS011;56723;42.694;23.286;2022-11-20T09:11:32;5.63;;;3.00;;
69523;SDS011;56723;42.694;23.286;2022-11-20T09:13:59;6.03;;;2.00;;
69523;SDS011;56723;42.694;23.286;2022-11-20T09:16:26;6.15;;;2.17;;
69523;SDS011;56723;42.694;23.286;2022-11-20T09:18:54;7.03;;;2.03;;
69523;SDS011;56723;42.694;23.286;2022-11-20T09:21:46;5.90;;;1.80;;
69523;SDS011;56723;42.694;23.286;2022-11-20T09:24:13;9.85;;;1.67;;
69523;SDS011;56723;42.694;23.286;2022-11-20T09:26:40;5.57;;;0.60;;
69523;SDS011;56723;42.694;23.286;2022-11-20T09:29:07;3.15;;;0.98;;
69523;SDS011;56723;42.694;23.286;2022-11-20T09:31:33;2.75;;;0.32;;
69523;SDS011;56723;42.694;23.286;2022-11-20T09:34:00;7.60;;;1.25;;
69523;SDS011;56723;42.694;23.286;2022-11-20T09:36:27;2.15;;;0.50;;
69523;SDS011;56723;42.694;23.286;2022-11-20T09:38:54;4.05;;;0.80;;
69523;SDS011;56723;42.694;23.286;2022-11-20T09:41:30;3.33;;;0.70;;
69523;SDS011;56723;42.694;23.286;2022-11-20T09:47:23;4.57;;;0.60;;
69523;SDS011;56723;42.694;23.286;2022-11-20T09:49:58;4.88;;;0.88;;
69523;SDS011;56723;42.694;23.286;2022-11-20T09:55:19;5.40;;;1.25;;
69523;SDS011;56723;42.694;23.286;2022-11-20T09:57:47;5.07;;;1.45;;
69523;SDS011;56723;42.694;23.286;2022-11-20T10:00:18;7.47;;;2.08;;
69523;SDS011;56723;42.694;23.286;2022-11-20T10:03:11;5.60;;;2.15;;
69523;SDS011;56723;42.694;23.286;2022-11-20T10:08:22;6.63;;;2.83;;
69523;SDS011;56723;42.694;23.286;2022-11-20T10:16:21;4.53;;;1.20;;
69523;SDS011;56723;42.694;23.286;2022-11-20T10:32:38;9.40;;;1.88;;
69523;SDS011;56723;42.694;23.286;2022-11-20T10:38:04;7.57;;;1.77;;
69523;SDS011;56723;42.694;23.286;2022-11-20T10:40:46;4.30;;;1.85;;
69523;SDS011;56723;42.694;23.286;2022-11-20T10:45:55;10.80;;;2.70;;
69523;SDS011;56723;42.694;23.286;2022-11-20T10:48:27;10.25;;;3.20;;
69523;SDS011;56723;42.694;23.286;2022-11-20T10:54:17;11.63;;;3.95;;
69523;SDS011;56723;42.694;23.286;2022-11-20T10:56:47;12.32;;;3.35;;
69523;SDS011;56723;42.694;23.286;2022-11-20T10:59:24;14.70;;;3.60;;
69523;SDS011;56723;42.694;23.286;2022-11-20T11:02:18;10.10;;;2.60;;
69523;SDS011;56723;42.694;23.286;2022-11-20T11:04:48;6.25;;;1.20;;
69523;SDS011;56723;42.694;23.286;2022-11-20T11:07:23;6.10;;;1.25;;
69523;SDS011;56723;42.694;23.286;2022-11-20T11:09:57;4.38;;;0.68;;
69523;SDS011;56723;42.694;23.286;2022-11-20T11:12:26;5.55;;;0.82;;
69523;SDS011;56723;42.694;23.286;2022-11-20T11:14:55;2.72;;;0.55;;
69523;SDS011;56723;42.694;23.286;2022-11-20T11:17:33;0.70;;;0.40;;
69523;SDS011;56723;42.694;23.286;2022-11-20T11:22:45;1.63;;;0.38;;
69523;SDS011;56723;42.694;23.286;2022-11-20T11:27:53;1.15;;;0.20;;
69523;SDS011;56723;42.694;23.286;2022-11-20T11:30:23;1.65;;;0.50;;
69523;SDS011;56723;42.694;23.286;2022-11-20T11:35:58;2.58;;;0.50;;
69523;SDS011;56723;42.694;23.286;2022-11-20T11:40:57;1.20;;;0.20;;
69523;SDS011;56723;42.694;23.286;2022-11-20T11:43:26;2.05;;;0.43;;
69523;SDS011;56723;42.694;23.286;2022-11-20T11:49:15;3.03;;;0.30;;
69523;SDS011;56723;42.694;23.286;2022-11-20T11:54:24;1.40;;;0.20;;
69523;SDS011;56723;42.694;23.286;2022-11-20T11:56:55;2.60;;;0.40;;
69523;SDS011;56723;42.694;23.286;2022-11-20T11:59:27;5.22;;;0.35;;
69523;SDS011;56723;42.694;23.286;2022-11-20T12:02:15;2.17;;;0.52;;
69523;SDS011;56723;42.694;23.286;2022-11-20T12:07:58;4.53;;;0.55;;
69523;SDS011;56723;42.694;23.286;2022-11-20T12:10:40;2.60;;;0.40;;
69523;SDS011;56723;42.694;23.286;2022-11-20T12:15:52;2.38;;;0.28;;
69523;SDS011;56723;42.694;23.286;2022-11-20T12:18:20;2.47;;;0.85;;
69523;SDS011;56723;42.694;23.286;2022-11-20T12:20:53;2.80;;;0.40;;
69523;SDS011;56723;42.694;23.286;2022-11-20T12:23:32;3.80;;;0.30;;
69523;SDS011;56723;42.694;23.286;2022-11-20T12:34:53;6.10;;;0.40;;
69523;SDS011;56723;42.694;23.286;2022-11-20T12:43:29;2.13;;;0.30;;
69523;SDS011;56723;42.694;23.286;2022-11-20T12:46:35;1.90;;;0.20;;
69523;SDS011;56723;42.694;23.286;2022-11-20T12:52:47;3.10;;;0.35;;
69523;SDS011;56723;42.694;23.286;2022-11-20T13:01:08;4.15;;;1.67;;
69523;SDS011;56723;42.694;23.286;2022-11-20T13:06:52;8.65;;;2.35;;
69523;SDS011;56723;42.694;23.286;2022-11-20T13:09:20;7.32;;;1.70;;
69523;SDS011;56723;42.694;23.286;2022-11-20T13:14:46;151.02;;;99.93;;
69523;SDS011;56723;42.694;23.286;2022-11-20T13:17:39;88.88;;;59.33;;
69523;SDS011;56723;42.694;23.286;2022-11-20T13:20:14;58.83;;;42.92;;
69523;SDS011;56723;42.694;23.286;2022-11-20T13:22:45;72.80;;;54.20;;
69523;SDS011;56723;42.694;23.286;2022-11-20T13:25:28;46.08;;;32.33;;
69523;SDS011;56723;42.694;23.286;2022-11-20T13:28:01;22.02;;;14.45;;
69523;SDS011;56723;42.694;23.286;2022-11-20T13:30:31;10.07;;;5.00;;
69523;SDS011;56723;42.694;23.286;2022-11-20T13:33:02;6.38;;;2.00;;
69523;SDS011;56723;42.694;23.286;2022-11-20T13:35:40;4.53;;;1.17;;
69523;SDS011;56723;42.694;23.286;2022-11-20T13:38:09;4.57;;;0.60;;
69523;SDS011;56723;42.694;23.286;2022-11-20T13:45:59;6.15;;;1.10;;
69523;SDS011;56723;42.694;23.286;2022-11-20T13:48:32;4.10;;;1.40;;
69523;SDS011;56723;42.694;23.286;2022-11-20T13:51:10;7.55;;;3.75;;
69523;SDS011;56723;42.694;23.286;2022-11-20T13:56:54;15.82;;;8.25;;
69523;SDS011;56723;42.694;23.286;2022-11-20T14:02:36;4.53;;;1.60;;
69523;SDS011;56723;42.694;23.286;2022-11-20T14:05:03;3.45;;;1.92;;
69523;SDS011;56723;42.694;23.286;2022-11-20T14:07:32;6.65;;;2.00;;
69523;SDS011;56723;42.694;23.286;2022-11-20T14:10:04;6.70;;;1.67;;
69523;SDS011;56723;42.694;23.286;2022-11-20T14:12:33;5.10;;;1.58;;
69523;SDS011;56723;42.694;23.286;2022-11-20T14:15:00;4.90;;;2.33;;
69523;SDS011;56723;42.694;23.286;2022-11-20T14:17:35;4.97;;;2.58;;
69523;SDS011;56723;42.694;23.286;2022-11-20T14:20:04;7.82;;;2.50;;
69523;SDS011;56723;42.694;23.286;2022-11-20T14:22:34;8.23;;;2.80;;
69523;SDS011;56723;42.694;23.286;2022-11-20T14:27:38;5.88;;;2.60;;
69523;SDS011;56723;42.694;23.286;2022-11-20T14:30:15;8.05;;;3.42;;
69523;SDS011;56723;42.694;23.286;2022-11-20T14:32:44;4.18;;;2.72;;
69523;SDS011;56723;42.694;23.286;2022-11-20T14:35:14;3.60;;;0.93;;
69523;SDS011;56723;42.694;23.286;2022-11-20T14:38:03;4.85;;;0.40;;
69523;SDS011;56723;42.694;23.286;2022-11-20T14:40:32;2.17;;;0.43;;
69523;SDS011;56723;42.694;23.286;2022-11-20T14:48:43;1.83;;;0.30;;
69523;SDS011;56723;42.694;23.286;2022-11-20T14:51:23;2.78;;;0.50;;
